createdAt,value
2023-04-27T00:01:44.026Z,68.35
2023-04-27T00:04:11.166Z,68.09
2023-04-27T00:06:38.337Z,68.46
2023-04-27T00:09:05.402Z,68.45
2023-04-27T00:11:32.554Z,68.79
2023-04-27T00:13:59.556Z,68.87
2023-04-27T00:16:26.749Z,69.13
2023-04-27T00:18:54.100Z,69.14
2023-04-27T00:21:21.249Z,69.26
2023-04-27T00:23:48.316Z,69.15
2023-04-27T00:26:15.340Z,69.03
2023-04-27T00:28:42.358Z,69.79
2023-04-27T00:31:09.387Z,69.62
2023-04-27T00:33:36.406Z,69.50
2023-04-27T00:36:03.679Z,69.74
2023-04-27T00:38:31.348Z,69.83
2023-04-27T00:41:07.747Z,69.93
2023-04-27T00:43:43.849Z,69.87
2023-04-27T00:46:13.915Z,69.61
2023-04-27T00:48:42.109Z,70.31
2023-04-27T00:51:09.196Z,70.16
2023-04-27T00:53:37.661Z,70.71
2023-04-27T00:56:08.088Z,70.90
2023-04-27T00:58:35.190Z,70.83
2023-04-27T01:01:02.366Z,70.61
2023-04-27T01:03:30.727Z,70.92
2023-04-27T01:06:01.547Z,71.80
2023-04-27T01:08:29.923Z,71.94
2023-04-27T01:10:57.189Z,72.13
2023-04-27T01:13:24.408Z,72.26
2023-04-27T01:15:51.451Z,72.34
2023-04-27T01:18:18.557Z,72.18
2023-04-27T01:20:45.569Z,72.47
2023-04-27T01:23:17.299Z,72.52
2023-04-27T01:25:44.867Z,72.59
2023-04-27T01:28:12.025Z,73.08
2023-04-27T01:30:39.271Z,73.03
2023-04-27T01:33:06.360Z,73.50
2023-04-27T01:35:33.391Z,74.25
2023-04-27T01:38:01.419Z,73.68
2023-04-27T01:40:28.576Z,73.20
2023-04-27T01:42:56.171Z,72.98
2023-04-27T01:45:23.293Z,73.31
2023-04-27T01:47:53.615Z,73.83
2023-04-27T01:50:20.970Z,73.75
2023-04-27T01:52:47.990Z,73.59
2023-04-27T01:55:15.072Z,74.20
2023-04-27T01:57:42.076Z,74.64
2023-04-27T02:00:09.824Z,74.79
2023-04-27T02:02:36.927Z,75.06
2023-04-27T02:05:04.478Z,74.85
2023-04-27T02:07:31.547Z,74.25
2023-04-27T02:09:58.561Z,74.50
2023-04-27T02:12:25.591Z,74.42
2023-04-27T02:14:52.581Z,75.00
2023-04-27T02:17:19.574Z,74.82
2023-04-27T02:19:46.565Z,74.87
2023-04-27T02:22:13.668Z,75.07
2023-04-27T02:24:40.629Z,75.48
2023-04-27T02:27:07.660Z,75.09
2023-04-27T02:29:38.914Z,75.02
2023-04-27T02:32:07.330Z,75.45
2023-04-27T02:34:34.398Z,75.21
2023-04-27T02:37:01.473Z,75.21
2023-04-27T02:39:28.494Z,75.45
2023-04-27T02:41:55.482Z,75.68
2023-04-27T02:44:22.514Z,75.71
2023-04-27T02:46:50.729Z,75.89
2023-04-27T02:49:17.753Z,76.17
2023-04-27T02:51:44.849Z,76.26
2023-04-27T02:54:12.020Z,75.90
2023-04-27T02:56:39.120Z,76.25
2023-04-27T02:59:06.179Z,76.17
2023-04-27T03:01:33.207Z,76.79
2023-04-27T03:04:00.573Z,76.88
2023-04-27T03:06:27.792Z,77.12
2023-04-27T03:08:54.749Z,76.59
2023-04-27T03:11:21.740Z,76.48
2023-04-27T03:13:48.726Z,76.58
2023-04-27T03:16:15.790Z,76.51
2023-04-27T03:18:42.841Z,76.21
2023-04-27T03:21:13.533Z,76.51
2023-04-27T03:23:40.791Z,76.79
2023-04-27T03:26:09.873Z,77.37
2023-04-27T03:28:38.397Z,77.63
2023-04-27T03:31:07.482Z,77.10
2023-04-27T03:33:35.015Z,76.83
2023-04-27T03:36:02.653Z,76.78
2023-04-27T03:38:30.292Z,76.07
2023-04-27T03:40:57.993Z,76.13
2023-04-27T03:43:26.168Z,75.83
2023-04-27T03:45:53.726Z,74.55
2023-04-27T03:48:21.054Z,73.75
2023-04-27T03:50:48.330Z,73.71
2023-04-27T03:53:15.922Z,71.62
2023-04-27T03:55:44.791Z,66.91
2023-04-27T03:58:12.384Z,63.96
2023-04-27T04:00:40.101Z,61.04
2023-04-27T04:03:08.149Z,58.93
2023-04-27T04:05:35.575Z,56.75
2023-04-27T04:08:02.666Z,54.17
2023-04-27T04:10:29.743Z,51.68
2023-04-27T04:12:56.777Z,49.43
2023-04-27T04:15:23.858Z,47.19
2023-04-27T04:17:51.301Z,45.31
2023-04-27T04:20:18.554Z,43.44
2023-04-27T04:22:45.674Z,41.96
2023-04-27T04:25:13.183Z,41.83
2023-04-27T04:27:41.131Z,46.10
2023-04-27T04:30:08.786Z,51.19
2023-04-27T04:32:38.129Z,53.91
2023-04-27T04:35:08.633Z,55.93
2023-04-27T04:37:36.525Z,55.85
2023-04-27T04:40:10.974Z,50.22
2023-04-27T04:42:38.570Z,41.38
2023-04-27T04:45:07.317Z,36.41
2023-04-27T04:47:34.691Z,34.10
2023-04-27T04:50:02.153Z,32.05
2023-04-27T04:52:29.353Z,30.23
2023-04-27T04:54:56.411Z,29.44
2023-04-27T04:57:23.522Z,28.84
2023-04-27T04:59:50.925Z,27.61
2023-04-27T05:02:17.976Z,27.04
2023-04-27T05:04:45.781Z,26.46
2023-04-27T05:07:14.909Z,25.68
2023-04-27T05:09:42.618Z,24.31
2023-04-27T05:12:10.260Z,24.41
2023-04-27T05:14:37.331Z,24.11
2023-04-27T05:17:04.378Z,23.62
2023-04-27T05:19:31.795Z,23.38
2023-04-27T05:21:59.430Z,22.58
2023-04-27T05:24:27.194Z,22.39
2023-04-27T05:26:54.992Z,21.70
2023-04-27T05:29:22.794Z,21.22
2023-04-27T05:31:49.879Z,20.49
2023-04-27T05:34:17.062Z,20.57
2023-04-27T05:36:44.178Z,22.29
2023-04-27T05:39:11.346Z,22.99
2023-04-27T05:41:38.711Z,23.33
2023-04-27T05:44:06.648Z,23.18
2023-04-27T05:46:33.821Z,23.79
2023-04-27T05:49:01.604Z,21.41
2023-04-27T05:51:28.971Z,20.26
2023-04-27T05:53:56.033Z,20.35
2023-04-27T05:56:23.296Z,19.56
2023-04-27T05:58:50.300Z,19.21
2023-04-27T06:01:17.420Z,18.14
2023-04-27T06:03:44.652Z,18.20
2023-04-27T06:06:11.879Z,18.28
2023-04-27T06:08:39.587Z,16.85
2023-04-27T06:11:06.975Z,18.10
2023-04-27T06:13:34.179Z,18.48
2023-04-27T06:16:01.971Z,18.81
2023-04-27T06:18:29.180Z,17.40
2023-04-27T06:21:02.778Z,18.55
2023-04-27T06:23:30.034Z,17.44
2023-04-27T06:25:58.840Z,17.32
2023-04-27T06:28:26.289Z,16.78
2023-04-27T06:30:54.663Z,16.25
2023-04-27T06:33:21.916Z,16.38
2023-04-27T06:35:48.946Z,16.29
2023-04-27T06:38:16.705Z,16.17
2023-04-27T06:40:44.931Z,16.08
2023-04-27T06:43:11.923Z,15.56
2023-04-27T06:45:38.875Z,16.59
2023-04-27T06:48:06.080Z,16.17
2023-04-27T06:50:33.173Z,16.48
2023-04-27T06:53:00.195Z,16.02
2023-04-27T06:55:27.207Z,16.50
2023-04-27T06:57:54.233Z,16.12
2023-04-27T07:00:21.619Z,16.60
2023-04-27T07:02:48.714Z,16.55
2023-04-27T07:05:16.462Z,17.13
2023-04-27T07:07:43.492Z,16.96
2023-04-27T07:10:11.102Z,16.79
2023-04-27T07:12:38.695Z,16.71
2023-04-27T07:15:07.270Z,16.02
2023-04-27T07:17:34.470Z,16.17
2023-04-27T07:20:06.441Z,15.40
2023-04-27T07:22:33.816Z,16.91
2023-04-27T07:25:01.034Z,17.93
2023-04-27T07:27:28.170Z,17.44
2023-04-27T07:29:55.279Z,18.27
2023-04-27T07:32:22.907Z,18.64
2023-04-27T07:34:54.207Z,18.15
2023-04-27T07:37:22.932Z,19.04
2023-04-27T07:39:52.088Z,19.88
2023-04-27T07:42:22.320Z,20.07
2023-04-27T07:44:50.391Z,19.89
2023-04-27T07:47:20.507Z,20.09
2023-04-27T07:49:48.123Z,20.44
2023-04-27T07:52:15.952Z,20.38
2023-04-27T07:54:43.280Z,19.57
2023-04-27T07:57:11.883Z,21.88
2023-04-27T07:59:39.729Z,21.36
2023-04-27T08:02:19.275Z,21.03
2023-04-27T08:04:48.594Z,20.78
2023-04-27T08:07:17.556Z,22.05
2023-04-27T08:09:44.895Z,21.48
2023-04-27T08:12:11.946Z,21.53
2023-04-27T08:14:38.982Z,21.36
2023-04-27T08:17:06.390Z,22.46
2023-04-27T08:19:33.537Z,23.79
2023-04-27T08:22:01.116Z,25.74
2023-04-27T08:24:28.118Z,26.95
2023-04-27T08:26:55.253Z,26.16
2023-04-27T08:29:27.781Z,25.99
2023-04-27T08:31:58.682Z,27.06
2023-04-27T08:34:26.070Z,28.33
2023-04-27T08:36:54.174Z,27.96
2023-04-27T08:39:21.908Z,27.99
2023-04-27T08:41:49.110Z,27.96
2023-04-27T08:44:16.269Z,28.17
2023-04-27T08:46:44.555Z,29.50
2023-04-27T08:49:12.754Z,30.11
2023-04-27T08:51:41.652Z,29.66
2023-04-27T08:54:08.853Z,30.81
2023-04-27T08:56:35.883Z,31.74
2023-04-27T08:59:05.807Z,32.16
2023-04-27T09:01:34.453Z,31.39
2023-04-27T09:04:02.406Z,31.81
2023-04-27T09:06:34.797Z,32.24
2023-04-27T09:09:03.423Z,32.04
2023-04-27T09:11:40.845Z,32.21
2023-04-27T09:14:20.310Z,32.24
2023-04-27T09:16:59.418Z,31.63
2023-04-27T09:19:30.830Z,32.41
2023-04-27T09:22:11.199Z,32.86
2023-04-27T09:24:38.463Z,32.68
2023-04-27T09:27:08.945Z,32.65
2023-04-27T09:29:38.156Z,32.93
2023-04-27T09:32:20.745Z,33.66
2023-04-27T09:34:48.178Z,33.75
2023-04-27T09:37:15.711Z,33.50
2023-04-27T09:39:43.470Z,33.76
2023-04-27T09:42:12.627Z,33.74
2023-04-27T09:44:39.804Z,33.98
2023-04-27T09:47:07.444Z,34.00
2023-04-27T09:49:36.339Z,35.16
2023-04-27T09:52:04.245Z,34.88
2023-04-27T09:54:34.568Z,35.08
2023-04-27T09:57:37.545Z,35.42
2023-04-27T10:00:26.389Z,34.85
2023-04-27T10:03:11.973Z,35.37
2023-04-27T10:06:04.739Z,35.69
2023-04-27T10:08:35.848Z,34.47
2023-04-27T10:11:15.565Z,34.96
2023-04-27T10:13:54.445Z,35.13
2023-04-27T10:16:22.488Z,35.35
2023-04-27T10:18:56.260Z,35.12
2023-04-27T10:21:23.915Z,35.32
2023-04-27T10:23:52.458Z,35.28
2023-04-27T10:26:27.908Z,34.91
2023-04-27T10:29:09.227Z,35.35
2023-04-27T10:31:43.341Z,34.49
2023-04-27T10:34:20.581Z,34.36
2023-04-27T10:36:48.444Z,33.43
2023-04-27T10:39:27.612Z,33.41
2023-04-27T10:41:59.988Z,33.49
2023-04-27T10:44:29.853Z,33.91
2023-04-27T10:47:02.551Z,33.53
2023-04-27T10:49:30.689Z,33.34
2023-04-27T10:51:59.633Z,33.81
2023-04-27T10:54:30.184Z,33.98
2023-04-27T10:57:09.194Z,34.47
2023-04-27T10:59:49.859Z,34.97
2023-04-27T11:02:17.537Z,35.61
2023-04-27T11:04:44.627Z,36.15
2023-04-27T11:07:12.353Z,35.41
2023-04-27T11:09:42.598Z,33.96
2023-04-27T11:12:13.911Z,34.08
2023-04-27T11:14:41.084Z,33.68
2023-04-27T11:17:09.190Z,33.46
2023-04-27T11:19:48.694Z,33.24
2023-04-27T11:22:19.213Z,33.55
2023-04-27T11:24:50.987Z,33.68
2023-04-27T11:27:19.180Z,33.67
2023-04-27T11:29:46.574Z,33.67
2023-04-27T11:32:23.917Z,33.92
2023-04-27T11:34:56.067Z,34.10
2023-04-27T11:37:27.675Z,33.80
2023-04-27T11:39:57.477Z,33.93
2023-04-27T11:42:28.936Z,33.32
2023-04-27T11:45:00.570Z,33.31
2023-04-27T11:47:30.503Z,33.30
2023-04-27T11:50:01.237Z,33.12
2023-04-27T11:52:33.471Z,33.34
2023-04-27T11:55:02.627Z,33.22
2023-04-27T11:57:32.910Z,33.10
2023-04-27T12:00:02.609Z,33.42
2023-04-27T12:02:31.477Z,33.11
2023-04-27T12:04:59.952Z,32.50
2023-04-27T12:07:27.280Z,32.15
2023-04-27T12:09:54.499Z,31.83
2023-04-27T12:12:24.388Z,32.21
2023-04-27T12:14:51.987Z,31.78
2023-04-27T12:17:19.679Z,32.55
2023-04-27T12:19:46.706Z,32.99
2023-04-27T12:22:14.504Z,33.24
2023-04-27T12:24:41.474Z,33.68
2023-04-27T12:27:08.609Z,33.92
2023-04-27T12:29:35.645Z,33.88
2023-04-27T12:32:02.622Z,34.00
2023-04-27T12:34:29.714Z,33.51
2023-04-27T12:36:56.958Z,32.88
2023-04-27T12:39:27.041Z,32.81
2023-04-27T12:41:54.883Z,32.44
2023-04-27T12:44:22.760Z,32.12
2023-04-27T12:46:50.613Z,31.97
2023-04-27T12:49:18.114Z,31.61
2023-04-27T12:51:47.931Z,31.54
2023-04-27T12:54:15.265Z,31.61
2023-04-27T12:56:42.371Z,32.05
2023-04-27T12:59:09.934Z,32.02
2023-04-27T13:01:37.366Z,31.91
2023-04-27T13:04:06.367Z,31.82
2023-04-27T13:06:33.627Z,32.21
2023-04-27T13:09:00.641Z,32.52
2023-04-27T13:11:27.820Z,33.33
2023-04-27T13:13:57.962Z,33.33
2023-04-27T13:16:25.817Z,33.70
2023-04-27T13:18:55.484Z,34.26
2023-04-27T13:21:23.330Z,34.61
2023-04-27T13:23:51.279Z,34.66
2023-04-27T13:26:19.125Z,34.58
2023-04-27T13:28:46.240Z,34.26
2023-04-27T13:31:13.338Z,34.28
2023-04-27T13:33:43.168Z,34.45
2023-04-27T13:36:11.541Z,34.61
2023-04-27T13:38:39.013Z,34.18
2023-04-27T13:41:06.768Z,34.37
2023-04-27T13:43:34.192Z,34.64
2023-04-27T13:46:02.528Z,34.13
2023-04-27T13:48:30.497Z,33.40
2023-04-27T13:50:57.889Z,33.74
2023-04-27T13:53:25.980Z,33.22
2023-04-27T13:55:57.458Z,33.53
2023-04-27T13:58:27.296Z,33.33
2023-04-27T14:00:54.818Z,33.35
2023-04-27T14:03:22.903Z,33.62
2023-04-27T14:05:51.426Z,34.06
2023-04-27T14:08:18.902Z,33.96
2023-04-27T14:10:46.322Z,33.49
2023-04-27T14:13:13.636Z,33.77
2023-04-27T14:15:41.814Z,33.66
2023-04-27T14:18:09.820Z,33.37
2023-04-27T14:20:38.794Z,33.33
2023-04-27T14:23:06.961Z,33.98
2023-04-27T14:25:34.970Z,33.50
2023-04-27T14:28:06.871Z,33.69
2023-04-27T14:30:35.058Z,32.98
2023-04-27T14:33:02.873Z,31.91
2023-04-27T14:35:30.251Z,32.15
2023-04-27T14:38:01.981Z,31.98
2023-04-27T14:40:30.858Z,31.21
2023-04-27T14:42:58.718Z,31.65
2023-04-27T14:45:30.972Z,31.30
2023-04-27T14:48:00.962Z,31.65
2023-04-27T14:50:28.679Z,31.50
2023-04-27T14:52:58.782Z,32.15
2023-04-27T14:55:26.029Z,32.60
2023-04-27T14:57:53.048Z,32.92
2023-04-27T15:00:20.330Z,33.38
2023-04-27T15:02:47.354Z,33.81
2023-04-27T15:05:14.395Z,34.11
2023-04-27T15:07:41.596Z,34.78
2023-04-27T15:10:09.447Z,35.38
2023-04-27T15:12:36.484Z,35.71
2023-04-27T15:15:03.757Z,35.61
2023-04-27T15:17:30.888Z,35.91
2023-04-27T15:19:57.972Z,36.39
2023-04-27T15:22:25.046Z,36.97
2023-04-27T15:24:52.853Z,36.95
2023-04-27T15:27:19.964Z,37.18
2023-04-27T15:29:46.926Z,37.44
2023-04-27T15:32:13.900Z,37.56
2023-04-27T15:34:44.483Z,37.92
2023-04-27T15:37:11.811Z,37.35
2023-04-27T15:39:38.863Z,37.59
2023-04-27T15:42:06.046Z,37.54
2023-04-27T15:44:33.182Z,37.73
2023-04-27T15:47:00.275Z,37.45
2023-04-27T15:49:27.694Z,37.56
2023-04-27T15:51:55.452Z,38.66
2023-04-27T15:54:22.640Z,39.29
2023-04-27T15:56:49.684Z,39.07
2023-04-27T15:59:16.896Z,39.08
2023-04-27T16:01:44.169Z,37.78
2023-04-27T16:04:11.574Z,37.20
2023-04-27T16:06:39.088Z,37.29
2023-04-27T16:09:10.413Z,37.00
2023-04-27T16:11:38.044Z,37.72
2023-04-27T16:14:05.191Z,37.89
2023-04-27T16:16:32.439Z,38.23
2023-04-27T16:18:59.553Z,37.96
2023-04-27T16:21:28.124Z,37.89
2023-04-27T16:23:55.104Z,37.89
2023-04-27T16:26:22.101Z,38.07
2023-04-27T16:28:49.166Z,38.31
2023-04-27T16:31:16.234Z,38.51
2023-04-27T16:33:43.235Z,38.42
2023-04-27T16:36:11.375Z,38.89
2023-04-27T16:38:39.512Z,38.72
2023-04-27T16:41:06.588Z,38.51
2023-04-27T16:43:33.985Z,38.46
2023-04-27T16:46:01.288Z,38.47
2023-04-27T16:48:28.483Z,38.29
2023-04-27T16:50:56.372Z,38.06
2023-04-27T16:53:23.719Z,38.18
2023-04-27T16:55:50.750Z,38.90
2023-04-27T16:58:17.839Z,38.69
2023-04-27T17:00:45.027Z,39.15
2023-04-27T17:03:12.220Z,39.75
2023-04-27T17:05:39.438Z,40.17
2023-04-27T17:08:06.478Z,40.79
2023-04-27T17:10:33.571Z,41.49
2023-04-27T17:13:00.614Z,42.16
2023-04-27T17:15:28.776Z,42.74
2023-04-27T17:17:56.388Z,43.61
2023-04-27T17:20:23.429Z,44.35
2023-04-27T17:22:50.482Z,44.32
2023-04-27T17:25:17.759Z,44.34
2023-04-27T17:27:44.828Z,44.93
2023-04-27T17:30:12.215Z,44.95
2023-04-27T17:32:39.486Z,45.62
2023-04-27T17:35:07.269Z,45.49
2023-04-27T17:37:34.226Z,45.84
2023-04-27T17:40:01.225Z,46.22
2023-04-27T17:42:28.227Z,45.80
2023-04-27T17:44:55.624Z,45.62
2023-04-27T17:47:25.367Z,46.10
2023-04-27T17:49:52.581Z,46.24
2023-04-27T17:52:19.639Z,46.53
2023-04-27T17:54:48.171Z,47.10
2023-04-27T17:57:15.153Z,46.87
2023-04-27T17:59:42.168Z,47.62
2023-04-27T18:02:09.272Z,47.52
2023-04-27T18:04:36.647Z,47.72
2023-04-27T18:07:03.876Z,48.58
2023-04-27T18:09:32.935Z,48.11
2023-04-27T18:12:00.746Z,48.54
2023-04-27T18:14:27.835Z,49.47
2023-04-27T18:16:55.010Z,49.23
2023-04-27T18:19:22.583Z,49.61
2023-04-27T18:21:49.598Z,50.03
2023-04-27T18:24:16.593Z,49.86
2023-04-27T18:26:43.576Z,49.66
2023-04-27T18:29:10.596Z,50.10
2023-04-27T18:31:38.074Z,49.78
2023-04-27T18:34:05.163Z,49.86
2023-04-27T18:36:32.345Z,49.59
2023-04-27T18:38:59.714Z,50.26
2023-04-27T18:41:26.685Z,50.47
2023-04-27T18:43:53.811Z,51.22
2023-04-27T18:46:21.081Z,51.60
2023-04-27T18:48:48.225Z,51.73
2023-04-27T18:51:15.202Z,52.15
2023-04-27T18:53:42.160Z,52.68
2023-04-27T18:56:10.259Z,53.16
2023-04-27T18:58:37.277Z,53.24
2023-04-27T19:01:04.361Z,53.32
2023-04-27T19:03:31.767Z,53.61
2023-04-27T19:05:58.952Z,53.43
2023-04-27T19:08:25.958Z,53.92
2023-04-27T19:10:52.956Z,53.74
2023-04-27T19:13:19.913Z,53.59
2023-04-27T19:15:46.946Z,53.10
2023-04-27T19:18:13.984Z,53.11
2023-04-27T19:20:40.978Z,53.14
2023-04-27T19:23:09.610Z,53.30
2023-04-27T19:25:37.274Z,52.82
2023-04-27T19:28:05.060Z,52.96
2023-04-27T19:30:32.116Z,53.29
2023-04-27T19:32:59.153Z,53.89
2023-04-27T19:35:27.685Z,53.64
2023-04-27T19:37:54.774Z,53.22
2023-04-27T19:40:21.938Z,53.25
2023-04-27T19:42:49.786Z,53.11
2023-04-27T19:45:18.070Z,52.88
2023-04-27T19:47:46.156Z,53.13
2023-04-27T19:50:13.331Z,53.50
2023-04-27T19:52:40.634Z,53.17
2023-04-27T19:55:08.448Z,53.26
2023-04-27T19:57:35.622Z,52.96
2023-04-27T20:00:05.256Z,53.51
2023-04-27T20:02:32.936Z,53.91
2023-04-27T20:05:00.182Z,53.87
2023-04-27T20:07:27.425Z,54.84
2023-04-27T20:09:54.415Z,55.12
2023-04-27T20:12:43.494Z,55.21
2023-04-27T20:15:09.648Z,55.30
2023-04-27T20:17:36.757Z,55.72
2023-04-27T20:20:10.511Z,56.30
2023-04-27T20:22:38.378Z,55.97
2023-04-27T20:25:06.638Z,56.63
2023-04-27T20:27:35.434Z,56.27
2023-04-27T20:30:02.673Z,56.49
2023-04-27T20:32:29.665Z,56.58
2023-04-27T20:34:56.638Z,56.83
2023-04-27T20:37:24.841Z,56.44
2023-04-27T20:39:52.213Z,56.99
2023-04-27T20:42:19.235Z,57.29
2023-04-27T20:44:46.384Z,57.36
2023-04-27T20:47:14.775Z,57.12
2023-04-27T20:49:42.262Z,56.70
2023-04-27T20:52:09.355Z,56.58
2023-04-27T20:54:36.580Z,56.57
2023-04-27T20:57:08.539Z,56.22
2023-04-27T20:59:35.569Z,56.36
2023-04-27T21:02:02.833Z,55.96
2023-04-27T21:04:29.994Z,56.21
2023-04-27T21:06:57.105Z,56.01
2023-04-27T21:09:24.119Z,56.12
2023-04-27T21:11:51.150Z,55.87
2023-04-27T21:14:18.163Z,55.70
2023-04-27T21:16:45.215Z,55.52
2023-04-27T21:19:14.772Z,55.44
2023-04-27T21:21:42.063Z,55.34
2023-04-27T21:24:09.208Z,55.29
2023-04-27T21:26:36.340Z,55.65
2023-04-27T21:29:05.739Z,55.06
2023-04-27T21:31:34.122Z,54.82
2023-04-27T21:34:03.557Z,54.72
2023-04-27T21:36:30.690Z,55.00
2023-04-27T21:38:57.671Z,55.22
2023-04-27T21:41:24.730Z,55.96
2023-04-27T21:43:51.779Z,56.52
2023-04-27T21:46:18.882Z,56.25
2023-04-27T21:48:46.065Z,56.16
2023-04-27T21:51:13.004Z,56.70
2023-04-27T21:53:40.016Z,57.01
2023-04-27T21:56:07.561Z,57.55
2023-04-27T21:58:34.660Z,57.79
2023-04-27T22:01:01.772Z,57.64
2023-04-27T22:03:29.054Z,57.20
2023-04-27T22:05:57.598Z,57.18
2023-04-27T22:08:24.764Z,58.02
2023-04-27T22:10:51.960Z,58.44
2023-04-27T22:13:19.798Z,59.01
2023-04-27T22:15:48.420Z,59.75
2023-04-27T22:18:15.845Z,59.43
2023-04-27T22:20:43.189Z,59.31
2023-04-27T22:23:10.823Z,59.23
2023-04-27T22:25:37.904Z,59.62
2023-04-27T22:28:05.147Z,59.81
2023-04-27T22:30:32.196Z,59.85
2023-04-27T22:32:59.244Z,60.05
2023-04-27T22:35:27.797Z,60.15
2023-04-27T22:37:56.085Z,59.84
2023-04-27T22:40:23.394Z,59.26
2023-04-27T22:42:50.785Z,58.58
2023-04-27T22:45:17.868Z,58.43
2023-04-27T22:47:46.033Z,58.98
2023-04-27T22:50:13.809Z,59.47
2023-04-27T22:52:44.397Z,59.53
2023-04-27T22:55:12.829Z,59.75
2023-04-27T22:57:41.867Z,59.74
2023-04-27T23:00:11.493Z,59.16
2023-04-27T23:02:40.542Z,59.49
2023-04-27T23:05:08.904Z,59.82
2023-04-27T23:07:36.298Z,60.46
2023-04-27T23:10:03.625Z,60.35
2023-04-27T23:12:31.386Z,60.11
2023-04-27T23:15:01.390Z,60.17
2023-04-27T23:17:31.282Z,59.97
2023-04-27T23:20:11.247Z,59.98
2023-04-27T23:22:44.322Z,60.57
2023-04-27T23:25:11.710Z,61.31
2023-04-27T23:27:38.760Z,61.06
2023-04-27T23:30:06.762Z,61.20
2023-04-27T23:32:36.113Z,60.97
2023-04-27T23:35:03.197Z,61.41
2023-04-27T23:37:30.180Z,61.94
2023-04-27T23:39:57.144Z,62.51
2023-04-27T23:42:24.138Z,62.60
2023-04-27T23:44:51.332Z,62.19
2023-04-27T23:47:18.445Z,62.71
2023-04-27T23:49:45.682Z,62.82
2023-04-27T23:52:12.648Z,62.83
2023-04-27T23:54:39.654Z,63.34
2023-04-27T23:57:06.741Z,63.46
2023-04-27T23:59:35.435Z,62.98
